Time;durP1;ratioP1;P1;durP2;ratioP2;P2;SDS_P1;SDS_P2;PMS_P1;PMS_P2;Temp;Humidity;BMP_temperature;BMP_pressure;BME280_temperature;BME280_humidity;BME280_pressure;Samples;Min_cycle;Max_cycle;Signal;HPM_P1;HPM_P2
2022/03/21 04:00:13;;;;;;;18.40;16.40;;;1.30;99.90;;;;;;5974977;23;20189;31
2022/03/21 04:05:24;;;;;;;18.50;16.53;;;1.20;99.90;;;;;;4918908;29;20187;-78
2022/03/21 04:07:50;;;;;;;18.40;16.40;;;1.20;99.90;;;;;;4921688;29;20198;-79
2022/03/21 04:10:16;;;;;;;25.67;23.17;;;1.20;99.90;;;;;;4953114;29;20210;-76
2022/03/21 04:12:43;;;;;;;21.67;19.63;;;1.20;99.90;;;;;;4917714;29;20218;-77
2022/03/21 04:15:10;;;;;;;19.20;17.17;;;1.20;99.90;;;;;;4964266;23;20245;-71
2022/03/21 04:17:36;;;;;;;20.73;18.53;;;1.10;99.90;;;;;;4952430;29;20213;-71
2022/03/21 04:20:04;;;;;;;19.93;18.03;;;1.10;99.90;;;;;;4970383;28;20189;-71
2022/03/21 04:22:30;;;;;;;21.27;19.17;;;1.10;99.90;;;;;;4969902;28;20602;-70
2022/03/21 04:24:55;;;;;;;22.63;20.63;;;1.10;99.90;;;;;;4954969;28;20284;-71
2022/03/21 04:27:21;;;;;;;19.93;17.40;;;1.10;99.90;;;;;;4954940;28;20177;-70
2022/03/21 04:29:47;;;;;;;21.60;19.60;;;1.10;99.90;;;;;;4954722;28;20220;-71
2022/03/21 04:32:13;;;;;;;23.27;18.87;;;1.10;99.90;;;;;;4953932;28;20733;-71
2022/03/21 04:34:38;;;;;;;20.73;18.70;;;1.10;99.90;;;;;;4970161;28;20293;-72
2022/03/21 04:37:04;;;;;;;17.17;15.43;;;1.10;99.90;;;;;;4954547;28;20217;-70
2022/03/21 04:39:30;;;;;;;17.63;15.80;;;1.10;99.90;;;;;;4969450;28;20177;-71
2022/03/21 04:41:58;;;;;;;19.47;17.37;;;1.00;99.90;;;;;;4970048;28;20232;-71
2022/03/21 04:44:24;;;;;;;23.47;21.17;;;1.00;99.90;;;;;;4954731;28;20292;-71
2022/03/21 04:46:50;;;;;;;22.30;19.40;;;1.00;99.90;;;;;;4968961;28;20638;-72
2022/03/21 04:49:16;;;;;;;20.63;18.43;;;1.00;99.90;;;;;;4954390;28;20196;-72
2022/03/21 04:51:42;;;;;;;20.13;16.10;;;1.00;99.90;;;;;;4942773;29;20277;-73
2022/03/21 04:54:08;;;;;;;19.13;17.10;;;0.90;99.90;;;;;;4936080;29;20304;-72
2022/03/21 04:56:34;;;;;;;20.93;18.90;;;0.90;99.90;;;;;;4953331;28;20201;-72
2022/03/21 04:58:59;;;;;;;21.67;17.57;;;0.80;99.90;;;;;;4952140;28;20186;-73
2022/03/21 05:01:25;;;;;;;17.70;15.90;;;0.80;99.90;;;;;;4952968;28;20174;-72
2022/03/21 05:03:51;;;;;;;18.90;17.00;;;0.70;99.90;;;;;;4952409;28;20605;-72
2022/03/21 05:06:17;;;;;;;18.30;16.40;;;0.70;99.90;;;;;;4953697;28;20177;-71
2022/03/21 05:08:44;;;;;;;20.63;16.97;;;0.70;99.90;;;;;;4952482;28;20209;-72
2022/03/21 05:11:10;;;;;;;21.30;17.67;;;0.60;99.90;;;;;;4952651;29;20189;-72
2022/03/21 05:13:37;;;;;;;21.20;17.30;;;0.60;99.90;;;;;;4953845;28;20190;-72
2022/03/21 05:16:06;;;;;;;19.63;16.20;;;0.60;99.90;;;;;;4953506;28;20589;-72
2022/03/21 05:18:35;;;;;;;20.90;15.70;;;0.50;99.90;;;;;;4952240;28;20232;-72
2022/03/21 05:21:05;;;;;;;21.07;15.77;;;0.50;99.90;;;;;;4953446;28;20181;-71
2022/03/21 05:31:45;;;;;;;18.33;14.40;;;0.50;99.90;;;;;;4954057;29;20186;-70
2022/03/21 05:36:55;;;;;;;16.20;12.97;;;0.60;99.90;;;;;;4957233;29;20221;-71
2022/03/21 05:39:23;;;;;;;18.83;14.30;;;0.70;99.90;;;;;;4953906;28;20185;-70
2022/03/21 05:41:51;;;;;;;17.23;14.00;;;0.80;99.90;;;;;;4954030;28;20177;-69
2022/03/21 05:44:17;;;;;;;17.73;14.57;;;0.80;99.90;;;;;;4952465;29;20805;-71
2022/03/21 05:46:43;;;;;;;16.47;14.70;;;0.90;99.90;;;;;;4952948;28;20312;-70
2022/03/21 05:49:09;;;;;;;19.63;15.87;;;1.00;99.90;;;;;;4953310;28;20185;-70
2022/03/21 05:51:36;;;;;;;21.00;16.37;;;1.00;99.90;;;;;;4954083;29;20550;-70
2022/03/21 05:54:10;;;;;;;20.43;18.30;;;1.00;99.90;;;;;;4954673;28;20186;-71
2022/03/21 05:56:38;;;;;;;20.50;18.50;;;1.00;99.90;;;;;;4952148;28;20268;-71
2022/03/21 06:01:50;;;;;;;21.60;15.00;;;1.20;99.90;;;;;;4953156;29;20273;-71
2022/03/21 06:04:16;;;;;;;18.13;15.53;;;1.30;99.90;;;;;;4952368;28;20257;-71
2022/03/21 06:06:43;;;;;;;20.93;16.60;;;1.40;99.90;;;;;;4953089;28;20559;-68
2022/03/21 06:09:09;;;;;;;21.70;15.73;;;1.40;99.90;;;;;;4952841;28;20209;-67
2022/03/21 06:11:36;;;;;;;18.87;15.80;;;1.50;99.90;;;;;;4952491;28;20192;-67
2022/03/21 06:14:04;;;;;;;20.07;15.00;;;1.60;99.90;;;;;;4951858;28;20182;-68
2022/03/21 06:16:31;;;;;;;19.43;17.20;;;1.80;99.90;;;;;;4952907;29;20344;-69
2022/03/21 06:19:00;;;;;;;18.00;15.33;;;1.90;99.90;;;;;;4952238;28;20276;-69
2022/03/21 06:21:30;;;;;;;22.23;14.50;;;2.10;99.90;;;;;;4951708;29;20658;-69
2022/03/21 06:23:56;;;;;;;19.50;14.17;;;2.20;99.90;;;;;;4952629;28;20332;-69
2022/03/21 06:26:22;;;;;;;19.90;17.80;;;2.30;99.90;;;;;;4951453;28;20241;-69
2022/03/21 06:28:49;;;;;;;20.20;18.10;;;2.50;99.90;;;;;;4952433;28;20189;-69
2022/03/21 06:31:15;;;;;;;19.83;14.87;;;2.60;99.90;;;;;;4952970;28;20181;-68
2022/03/21 06:33:41;;;;;;;27.67;23.27;;;2.70;99.90;;;;;;4952468;28;20186;-71
2022/03/21 06:36:07;;;;;;;29.63;26.80;;;2.90;99.90;;;;;;4952401;28;20224;-68
2022/03/21 06:38:34;;;;;;;30.67;27.43;;;3.10;99.90;;;;;;4951968;28;20196;-67
2022/03/21 06:41:00;;;;;;;23.67;21.50;;;3.20;99.90;;;;;;4952417;28;20177;-68
2022/03/21 06:43:27;;;;;;;19.13;17.07;;;3.40;99.90;;;;;;4952002;28;20231;-69
2022/03/21 06:45:54;;;;;;;22.43;16.63;;;3.50;99.90;;;;;;4951235;28;20293;-68
2022/03/21 06:48:23;;;;;;;21.53;16.83;;;3.80;99.90;;;;;;4951556;28;20324;-69
2022/03/21 06:50:49;;;;;;;18.77;16.70;;;4.10;99.90;;;;;;4965982;28;20236;-69
2022/03/21 06:53:16;;;;;;;22.17;17.20;;;4.50;99.90;;;;;;4951387;28;20205;-69
2022/03/21 06:55:43;;;;;;;28.57;19.67;;;5.00;99.90;;;;;;4952102;28;20209;-69
2022/03/21 06:58:11;;;;;;;23.10;14.20;;;5.60;99.90;;;;;;4951540;28;20650;-69
2022/03/21 07:00:46;;;;;;;15.90;13.73;;;6.00;99.90;;;;;;4952373;28;20186;-69
2022/03/21 07:03:17;;;;;;;24.60;16.57;;;6.40;99.90;;;;;;4952195;28;20212;-69
2022/03/21 07:05:43;;;;;;;25.63;15.83;;;6.90;99.90;;;;;;4952272;28;20678;-69
2022/03/21 07:08:09;;;;;;;14.50;12.50;;;7.30;99.90;;;;;;4951636;28;20310;-68
2022/03/21 07:10:35;;;;;;;14.80;11.60;;;7.60;99.90;;;;;;4951087;28;20282;-68
2022/03/21 07:13:02;;;;;;;15.33;13.80;;;7.80;99.90;;;;;;4951879;28;20193;-68
2022/03/21 07:15:28;;;;;;;17.03;13.90;;;8.10;99.90;;;;;;4966786;28;20237;-68
2022/03/21 07:17:56;;;;;;;19.73;14.17;;;8.50;99.90;;;;;;4951924;28;20196;-69
2022/03/21 07:20:22;;;;;;;16.60;13.03;;;8.80;99.90;;;;;;4952012;28;20182;-68
2022/03/21 07:22:47;;;;;;;16.83;14.17;;;9.10;99.80;;;;;;4951859;28;20182;-68
2022/03/21 07:25:13;;;;;;;14.50;13.03;;;9.20;98.30;;;;;;4954051;28;20201;-68
2022/03/21 07:27:44;;;;;;;13.77;12.23;;;9.10;95.90;;;;;;4955365;28;20220;-68
2022/03/21 07:30:12;;;;;;;14.33;12.80;;;8.80;95.90;;;;;;4954784;29;20650;-69
2022/03/21 07:32:40;;;;;;;15.80;13.47;;;8.60;95.80;;;;;;4955894;28;20546;-68
2022/03/21 07:35:07;;;;;;;15.80;13.10;;;8.40;96.40;;;;;;4955432;28;20212;-68
2022/03/21 07:37:49;;;;;;;14.63;13.10;;;8.70;96.30;;;;;;4954260;28;20213;-68
2022/03/21 07:40:15;;;;;;;14.33;12.77;;;9.10;96.40;;;;;;4955725;28;20194;-68
2022/03/21 07:42:43;;;;;;;15.27;13.47;;;9.70;94.70;;;;;;4955801;28;20186;-71
2022/03/21 07:47:56;;;;;;;15.77;13.17;;;10.10;92.30;;;;;;4955164;29;20190;-70
2022/03/21 07:50:25;;;;;;;15.47;12.93;;;10.50;91.60;;;;;;4955429;28;20216;-68
2022/03/21 07:52:52;;;;;;;14.17;12.67;;;11.00;91.20;;;;;;4955526;28;20177;-68
2022/03/21 07:55:18;;;;;;;14.43;12.90;;;11.30;88.90;;;;;;4954965;28;20700;-69
2022/03/21 07:57:43;;;;;;;14.20;12.70;;;11.60;87.50;;;;;;4955885;28;20217;-68
2022/03/21 08:00:10;;;;;;;15.03;12.57;;;12.10;88.00;;;;;;4958064;28;20184;-68
2022/03/21 08:02:37;;;;;;;19.13;13.07;;;12.30;87.90;;;;;;4957185;28;20736;-68
2022/03/21 08:05:04;;;;;;;14.60;13.10;;;12.70;85.40;;;;;;4955119;28;20205;-68
2022/03/21 08:07:32;;;;;;;13.73;12.33;;;12.80;81.40;;;;;;4954966;29;20241;-69
2022/03/21 08:09:58;;;;;;;16.30;13.17;;;12.80;81.30;;;;;;4955199;28;20178;-69
2022/03/21 08:12:24;;;;;;;14.33;12.53;;;12.90;73.20;;;;;;4953760;29;20586;-69
2022/03/21 08:14:51;;;;;;;12.43;11.20;;;12.70;68.70;;;;;;4953771;28;20581;-70
2022/03/21 08:17:18;;;;;;;13.93;12.03;;;12.50;68.30;;;;;;4952568;28;20224;-70
2022/03/21 08:19:44;;;;;;;13.83;12.43;;;12.10;70.40;;;;;;4954919;28;20646;-70
2022/03/21 08:22:10;;;;;;;13.30;11.90;;;12.10;72.60;;;;;;4954878;28;20289;-71
2022/03/21 08:24:36;;;;;;;13.93;11.73;;;12.30;69.10;;;;;;4954756;28;20241;-69
2022/03/21 08:27:05;;;;;;;14.17;12.67;;;12.00;67.50;;;;;;4954463;28;20189;-70
2022/03/21 08:29:31;;;;;;;12.40;11.10;;;11.90;69.50;;;;;;4969655;28;20178;-69
2022/03/21 08:31:57;;;;;;;13.90;12.27;;;12.10;67.10;;;;;;4967097;28;20245;-70
2022/03/21 08:34:23;;;;;;;13.17;11.63;;;12.00;68.30;;;;;;4954316;28;20213;-70
2022/03/21 08:36:49;;;;;;;12.33;11.03;;;12.20;69.00;;;;;;4951964;28;20221;-70
2022/03/21 08:39:15;;;;;;;13.27;11.90;;;12.40;66.50;;;;;;4954181;28;20793;-70
2022/03/21 08:41:41;;;;;;;15.47;11.50;;;12.10;67.40;;;;;;4954557;28;20276;-70
2022/03/21 08:44:07;;;;;;;14.40;12.73;;;11.90;67.70;;;;;;4953019;28;20209;-70
2022/03/21 08:46:32;;;;;;;15.73;12.77;;;11.90;67.80;;;;;;4954313;28;20217;-70
2022/03/21 08:51:43;;;;;;;17.23;12.43;;;12.50;68.00;;;;;;4954314;29;20193;-70
2022/03/21 08:54:10;;;;;;;15.30;13.00;;;12.80;65.50;;;;;;4954157;28;20229;-71
2022/03/21 08:56:37;;;;;;;14.17;12.10;;;13.10;65.20;;;;;;4954393;28;20213;-71
2022/03/21 08:59:03;;;;;;;14.60;12.20;;;13.40;62.20;;;;;;4954254;28;20197;-70
2022/03/21 09:01:29;;;;;;;13.30;11.93;;;13.60;63.60;;;;;;4953992;28;20189;-70
2022/03/21 09:03:55;;;;;;;14.43;11.10;;;14.30;60.70;;;;;;4953000;28;20550;-71
2022/03/21 09:06:21;;;;;;;14.77;12.67;;;14.50;59.40;;;;;;4954445;28;20821;-70
2022/03/21 09:08:48;;;;;;;15.53;13.93;;;14.80;57.90;;;;;;4953353;28;20189;-70
2022/03/21 09:11:17;;;;;;;18.50;15.57;;;14.70;57.40;;;;;;4954082;28;20264;-70
2022/03/21 09:13:45;;;;;;;17.20;15.40;;;14.80;58.50;;;;;;4952675;28;20182;-70
2022/03/21 09:16:11;;;;;;;16.97;15.37;;;15.00;57.10;;;;;;4952352;28;20209;-69
2022/03/21 09:18:37;;;;;;;16.57;14.87;;;15.20;57.70;;;;;;4952352;29;20182;-70
2022/03/21 09:21:03;;;;;;;16.33;14.50;;;15.40;56.60;;;;;;4954144;28;20237;-71
2022/03/21 09:23:29;;;;;;;15.87;14.37;;;15.50;55.50;;;;;;4968301;28;20657;-71
2022/03/21 09:25:55;;;;;;;18.53;15.73;;;15.70;57.30;;;;;;4953722;28;20214;-71
2022/03/21 09:28:21;;;;;;;17.67;15.97;;;16.00;59.20;;;;;;4951516;28;20222;-70
2022/03/21 09:30:48;;;;;;;16.60;14.03;;;16.40;56.20;;;;;;4950340;29;20208;-71
2022/03/21 09:33:15;;;;;;;15.47;13.87;;;16.80;54.60;;;;;;4953186;28;20638;-70
2022/03/21 09:35:43;;;;;;;14.70;13.20;;;16.90;52.80;;;;;;4953737;28;20220;-70
2022/03/21 09:38:10;;;;;;;14.30;12.80;;;16.70;53.90;;;;;;4967795;28;20177;-70
2022/03/21 09:40:36;;;;;;;15.00;11.80;;;17.00;51.60;;;;;;4952315;29;20213;-70
2022/03/21 09:43:02;;;;;;;14.07;12.07;;;17.00;51.30;;;;;;4953391;28;20178;-70
2022/03/21 09:45:28;;;;;;;14.20;12.30;;;17.00;50.90;;;;;;4953335;28;20213;-70
2022/03/21 09:48:09;;;;;;;13.70;12.30;;;17.20;49.90;;;;;;4952638;28;20181;-70
2022/03/21 09:50:36;;;;;;;14.37;12.87;;;17.30;50.70;;;;;;4967873;28;20185;-71
2022/03/21 09:53:04;;;;;;;13.40;11.93;;;18.00;50.50;;;;;;4953096;28;20558;-70
2022/03/21 09:55:30;;;;;;;13.87;12.30;;;18.70;48.40;;;;;;4953359;28;20548;-70
2022/03/21 09:57:55;;;;;;;14.07;12.67;;;18.70;47.60;;;;;;4967140;28;20185;-70
2022/03/21 10:00:22;;;;;;;15.43;13.10;;;18.90;47.60;;;;;;4952957;28;20628;-70
2022/03/21 10:02:48;;;;;;;14.30;12.80;;;19.00;45.50;;;;;;4967640;28;20256;-70
2022/03/21 10:05:37;;;;;;;14.73;13.23;;;18.60;46.80;;;;;;4952606;29;20263;-70
2022/03/21 10:08:29;;;;;;;19.87;14.33;;;18.50;46.40;;;;;;4951170;29;20182;-70
2022/03/21 10:11:04;;;;;;;14.90;12.37;;;18.00;47.20;;;;;;4952413;28;20665;-70
2022/03/21 10:13:34;;;;;;;14.93;12.97;;;17.70;47.50;;;;;;4952356;28;20272;-69
2022/03/21 10:16:08;;;;;;;17.10;13.87;;;17.40;49.10;;;;;;4952861;28;20244;-70
2022/03/21 10:18:34;;;;;;;16.17;14.53;;;17.50;49.50;;;;;;4947083;29;20705;-72
2022/03/21 10:21:14;;;;;;;15.97;13.97;;;17.50;49.60;;;;;;4951420;29;20638;-72
2022/03/21 10:23:40;;;;;;;15.63;13.13;;;17.70;47.40;;;;;;4952555;28;20192;-73
2022/03/21 10:26:27;;;;;;;14.90;12.93;;;17.80;45.20;;;;;;4952823;28;20185;-73
2022/03/21 10:28:55;;;;;;;16.50;14.20;;;18.00;43.50;;;;;;4971340;28;20184;-73
2022/03/21 10:31:53;;;;;;;20.97;13.53;;;17.80;44.60;;;;;;4970437;28;20185;-73
2022/03/21 10:34:22;;;;;;;19.23;13.43;;;18.00;44.20;;;;;;4981188;28;20297;-73
2022/03/21 10:36:59;;;;;;;18.67;14.57;;;18.50;45.30;;;;;;4965311;28;20215;-73
2022/03/21 10:39:26;;;;;;;17.73;15.73;;;19.20;42.10;;;;;;4962520;28;20199;-73
2022/03/21 10:42:03;;;;;;;18.27;16.47;;;19.60;41.10;;;;;;4969910;28;20177;-73
2022/03/21 10:44:29;;;;;;;19.87;17.97;;;19.70;40.90;;;;;;4970546;28;20192;-73
2022/03/21 10:47:03;;;;;;;20.13;18.37;;;19.50;40.50;;;;;;4964435;28;20194;-73
2022/03/21 10:49:30;;;;;;;24.30;22.00;;;19.60;40.80;;;;;;4950953;29;20190;-73
2022/03/21 10:51:56;;;;;;;22.20;20.20;;;20.00;40.70;;;;;;4951604;28;20618;-73
2022/03/21 10:54:43;;;;;;;26.33;24.40;;;20.50;40.50;;;;;;4951135;29;20555;-73
2022/03/21 10:57:32;;;;;;;20.83;19.13;;;21.60;38.60;;;;;;4951844;29;20221;-73
2022/03/21 11:00:18;;;;;;;22.37;20.23;;;21.80;37.80;;;;;;4950623;29;20181;-73
2022/03/21 11:02:53;;;;;;;22.45;20.35;;;21.40;38.50;;;;;;4952234;29;20790;-73
2022/03/21 11:05:20;;;;;;;20.50;18.73;;;21.20;40.00;;;;;;4951003;29;20271;-73
2022/03/21 11:07:46;;;;;;;19.15;17.40;;;21.00;39.50;;;;;;4963562;28;20209;-73
2022/03/21 11:10:12;;;;;;;18.17;16.45;;;21.20;39.80;;;;;;4965138;28;20196;-73
2022/03/21 11:12:42;;;;;;;15.38;13.85;;;21.90;39.70;;;;;;4954054;28;20557;-73
2022/03/21 11:15:09;;;;;;;17.55;12.57;;;22.30;37.80;;;;;;4952211;28;20189;-73
2022/03/21 11:17:36;;;;;;;14.02;12.40;;;22.50;37.00;;;;;;4951371;28;20288;-73
2022/03/21 11:20:08;;;;;;;15.73;13.05;;;22.80;36.80;;;;;;4952016;29;20610;-73
2022/03/21 11:22:35;;;;;;;13.88;11.60;;;23.50;35.60;;;;;;4952038;28;20721;-73
2022/03/21 11:25:06;;;;;;;15.80;13.93;;;23.80;35.00;;;;;;4951893;28;20182;-72
2022/03/21 11:28:01;;;;;;;13.98;11.70;;;23.60;35.60;;;;;;4950348;29;20205;-72
2022/03/21 11:30:36;;;;;;;14.02;12.23;;;23.20;36.70;;;;;;4952071;28;20716;-74
2022/03/21 11:33:27;;;;;;;15.93;12.63;;;23.40;34.70;;;;;;4951765;28;20188;-72
2022/03/21 11:36:00;;;;;;;14.80;12.20;;;23.00;35.00;;;;;;4951592;28;20692;-72
2022/03/21 11:38:33;;;;;;;13.77;12.43;;;22.50;36.00;;;;;;4950078;29;20653;-73
2022/03/21 11:41:16;;;;;;;17.58;12.73;;;22.90;36.90;;;;;;4951796;28;20194;-73
2022/03/21 11:43:44;;;;;;;17.00;12.38;;;22.60;36.40;;;;;;4950482;29;20774;-73
2022/03/21 11:46:30;;;;;;;12.93;11.32;;;22.90;36.60;;;;;;4951629;28;20244;-72
2022/03/21 11:49:22;;;;;;;13.60;12.13;;;23.10;36.20;;;;;;4949949;29;20221;-72
2022/03/21 11:52:00;;;;;;;15.00;12.55;;;24.10;34.80;;;;;;4948557;29;20192;-74
2022/03/21 11:54:30;;;;;;;14.88;12.07;;;24.40;34.60;;;;;;4951817;28;20255;-73
2022/03/21 11:56:58;;;;;;;13.32;12.02;;;24.10;35.40;;;;;;4951278;28;20229;-73
2022/03/21 11:59:33;;;;;;;12.85;11.52;;;24.50;34.90;;;;;;4950352;29;20242;-72
2022/03/21 12:02:12;;;;;;;15.85;12.25;;;24.10;34.30;;;;;;4951589;28;20188;-73
2022/03/21 12:04:40;;;;;;;13.85;12.45;;;24.70;33.40;;;;;;4951638;29;20241;-73
2022/03/21 12:07:11;;;;;;;23.35;16.40;;;24.70;34.50;;;;;;4951137;28;20682;-73
2022/03/21 12:09:43;;;;;;;13.48;12.18;;;24.10;34.70;;;;;;4951481;28;20198;-72
2022/03/21 12:12:12;;;;;;;13.75;11.38;;;23.50;35.70;;;;;;4953129;28;20265;-73
2022/03/21 12:14:46;;;;;;;12.95;11.52;;;23.10;36.30;;;;;;4954992;28;20185;-73
2022/03/21 12:17:11;;;;;;;13.35;11.93;;;23.10;35.70;;;;;;4954527;28;20595;-73
2022/03/21 12:19:57;;;;;;;12.68;11.40;;;23.00;35.50;;;;;;4953650;29;20288;-73
2022/03/21 12:22:39;;;;;;;15.23;12.40;;;23.50;35.00;;;;;;4955257;28;20197;-73
2022/03/21 12:25:27;;;;;;;13.95;12.55;;;23.10;34.00;;;;;;4953617;29;20182;-73
2022/03/21 12:27:58;;;;;;;15.13;13.50;;;23.00;36.00;;;;;;4954735;28;20630;-73
2022/03/21 12:30:24;;;;;;;14.38;11.30;;;23.70;35.30;;;;;;4953750;29;20560;-73
2022/03/21 12:33:07;;;;;;;12.23;10.63;;;23.90;33.60;;;;;;4954481;28;20240;-73
2022/03/21 12:35:43;;;;;;;13.55;11.82;;;23.60;33.60;;;;;;4954490;28;20186;-72
2022/03/21 12:38:22;;;;;;;12.90;11.13;;;23.60;33.80;;;;;;4954212;29;20312;-73
2022/03/21 12:40:50;;;;;;;18.80;11.45;;;23.90;33.50;;;;;;4954686;28;20221;-72
2022/03/21 12:43:16;;;;;;;15.30;12.43;;;24.20;33.70;;;;;;4953552;29;20184;-72
2022/03/21 12:45:44;;;;;;;13.35;12.05;;;25.10;32.20;;;;;;4953010;29;20208;-74
2022/03/21 12:48:12;;;;;;;14.68;13.15;;;25.50;31.30;;;;;;4952551;29;20202;-72
2022/03/21 12:50:38;;;;;;;14.88;11.90;;;25.70;30.70;;;;;;4962915;28;20240;-72
2022/03/21 12:53:10;;;;;;;14.40;12.75;;;25.30;31.00;;;;;;4973788;28;20177;-72
2022/03/21 12:55:37;;;;;;;13.75;11.52;;;25.70;30.40;;;;;;4963894;28;20177;-72
2022/03/21 12:58:04;;;;;;;12.63;11.35;;;25.60;31.30;;;;;;4971608;28;20201;-73
2022/03/21 13:00:37;;;;;;;12.23;10.25;;;26.80;29.80;;;;;;4973444;28;20646;-73
2022/03/21 13:03:15;;;;;;;16.33;11.48;;;25.40;29.80;;;;;;4969230;28;20174;-72
2022/03/21 13:11:23;;;;;;;16.85;10.95;;;25.10;31.20;;;;;;4964571;28;20213;-73
2022/03/21 13:13:53;;;;;;;17.80;11.02;;;25.20;30.80;;;;;;4961964;28;20237;-73
2022/03/21 13:16:23;;;;;;;15.27;11.02;;;26.00;30.10;;;;;;4953889;28;20248;-73
2022/03/21 13:18:50;;;;;;;11.65;10.45;;;25.80;30.00;;;;;;4952556;29;20193;-73
2022/03/21 13:21:18;;;;;;;14.27;11.90;;;25.60;30.60;;;;;;4952878;29;20186;-73
2022/03/21 13:23:49;;;;;;;14.35;11.95;;;25.50;30.60;;;;;;4963831;28;20189;-72
2022/03/21 13:26:26;;;;;;;15.30;13.25;;;25.50;31.00;;;;;;4971617;28;20189;-72
2022/03/21 13:28:54;;;;;;;18.73;12.50;;;25.00;31.80;;;;;;4972829;28;20592;-72
2022/03/21 13:31:25;;;;;;;17.77;13.70;;;25.00;32.20;;;;;;4972055;28;20177;-73
2022/03/21 13:33:59;;;;;;;16.48;12.13;;;25.70;31.00;;;;;;4958061;28;20658;-72
2022/03/21 13:36:26;;;;;;;16.60;14.20;;;25.50;30.50;;;;;;4952436;28;20690;-73
2022/03/21 13:39:32;;;;;;;13.50;12.23;;;25.10;31.30;;;;;;4952512;29;20600;-72
2022/03/21 13:41:59;;;;;;;14.98;12.45;;;25.00;30.70;;;;;;4970544;28;20185;-73
2022/03/21 13:44:30;;;;;;;13.80;11.70;;;25.30;30.90;;;;;;4970630;28;20612;-73
2022/03/21 13:47:00;;;;;;;15.77;12.45;;;25.40;30.80;;;;;;4961127;28;20631;-73
2022/03/21 13:49:53;;;;;;;15.75;12.00;;;25.00;30.90;;;;;;4953608;28;20276;-73
2022/03/21 13:52:40;;;;;;;15.02;11.43;;;25.50;30.80;;;;;;4968040;28;20284;-73
2022/03/21 13:55:07;;;;;;;18.58;12.70;;;25.10;31.20;;;;;;4951999;29;20181;-73
2022/03/21 13:57:47;;;;;;;13.93;10.82;;;24.90;31.80;;;;;;4951414;29;20235;-73
2022/03/21 14:00:26;;;;;;;13.07;11.93;;;25.30;31.20;;;;;;4963871;28;20177;-72
2022/03/21 14:02:54;;;;;;;15.60;12.75;;;24.90;31.50;;;;;;4972375;28;20183;-72
2022/03/21 14:05:28;;;;;;;12.68;11.48;;;24.60;32.00;;;;;;4972425;28;20177;-74
2022/03/21 14:08:14;;;;;;;18.27;12.57;;;24.00;32.70;;;;;;4970445;28;20196;-73
2022/03/21 14:10:43;;;;;;;12.40;10.90;;;23.10;33.70;;;;;;4972411;28;20180;-73
2022/03/21 14:13:15;;;;;;;15.18;10.60;;;22.70;34.90;;;;;;4968867;28;20193;-73
2022/03/21 14:15:44;;;;;;;12.57;11.23;;;23.10;34.60;;;;;;4972161;28;20184;-73
2022/03/21 14:18:10;;;;;;;13.68;10.55;;;23.00;35.10;;;;;;4971308;28;20255;-73
2022/03/21 14:20:37;;;;;;;12.05;10.75;;;23.70;33.40;;;;;;4971503;28;20606;-73
2022/03/21 14:23:04;;;;;;;13.45;12.05;;;24.30;32.70;;;;;;4972149;28;20173;-73
2022/03/21 14:28:14;;;;;;;16.00;11.82;;;23.30;33.30;;;;;;4972098;28;20589;-73
2022/03/21 14:30:39;;;;;;;16.45;11.20;;;22.00;35.70;;;;;;4960778;28;20178;-73
2022/03/21 14:33:05;;;;;;;11.45;10.20;;;22.10;35.80;;;;;;4962829;28;20201;-73
2022/03/21 14:35:31;;;;;;;12.30;9.02;;;23.60;34.20;;;;;;4958045;28;20662;-73
2022/03/21 14:37:57;;;;;;;13.15;10.57;;;24.40;32.20;;;;;;4952291;28;20281;-73
2022/03/21 14:40:23;;;;;;;12.73;9.77;;;24.60;31.90;;;;;;4952633;28;20633;-73
2022/03/21 14:42:48;;;;;;;12.77;10.15;;;24.70;31.00;;;;;;4952345;28;20584;-74
2022/03/21 14:45:14;;;;;;;13.00;11.70;;;25.40;30.60;;;;;;4952367;28;20174;-73
2022/03/21 14:47:40;;;;;;;12.73;11.45;;;25.70;30.30;;;;;;4950830;28;20205;-73
2022/03/21 14:50:08;;;;;;;14.07;10.27;;;25.40;30.60;;;;;;4952342;28;20227;-73
2022/03/21 14:52:34;;;;;;;15.60;11.32;;;24.80;30.90;;;;;;4950681;28;20572;-73
2022/03/21 14:55:00;;;;;;;12.25;11.07;;;25.10;30.50;;;;;;4951454;28;20646;-73
2022/03/21 14:57:26;;;;;;;13.20;11.38;;;25.50;30.90;;;;;;4950272;29;20224;-72
2022/03/21 14:59:52;;;;;;;18.17;12.98;;;25.50;30.10;;;;;;4952376;28;20654;-72
2022/03/21 15:02:18;;;;;;;12.82;11.55;;;25.00;30.40;;;;;;4952108;28;20638;-72
2022/03/21 15:04:44;;;;;;;12.70;10.18;;;24.70;30.90;;;;;;4952387;28;20181;-73
2022/03/21 15:07:11;;;;;;;11.63;10.15;;;23.80;32.20;;;;;;4962742;28;20201;-73
2022/03/21 15:12:23;;;;;;;11.38;9.50;;;22.90;34.10;;;;;;4971446;28;20564;-73
2022/03/21 15:14:49;;;;;;;16.20;12.50;;;22.00;34.70;;;;;;4966568;28;20193;-73
2022/03/21 15:17:16;;;;;;;17.20;15.57;;;21.30;36.00;;;;;;4961805;28;20209;-73
2022/03/21 15:19:41;;;;;;;20.40;18.43;;;20.80;36.90;;;;;;4950331;29;20236;-73
2022/03/21 15:22:07;;;;;;;21.87;20.00;;;20.70;37.80;;;;;;4951980;29;20546;-73
2022/03/21 15:24:36;;;;;;;22.07;20.20;;;20.40;37.30;;;;;;4951777;29;20228;-72
2022/03/21 15:27:01;;;;;;;19.77;18.17;;;19.80;38.20;;;;;;4951209;28;20209;-75
2022/03/21 15:29:27;;;;;;;19.57;17.77;;;19.70;38.70;;;;;;4956905;28;20339;-72
2022/03/21 15:31:53;;;;;;;19.30;17.50;;;19.70;38.60;;;;;;4962627;28;20181;-72
2022/03/21 15:34:20;;;;;;;19.87;18.27;;;19.80;38.80;;;;;;4960225;28;20235;-72
2022/03/21 15:42:16;;;;;;;21.47;19.67;;;20.40;37.60;;;;;;4972002;28;20273;-73
2022/03/21 15:44:41;;;;;;;21.97;20.13;;;20.30;38.00;;;;;;4972054;28;20491;-74
2022/03/21 15:47:07;;;;;;;21.70;19.90;;;20.40;37.70;;;;;;4973189;28;20212;-74
2022/03/21 15:49:33;;;;;;;19.80;18.10;;;20.50;37.80;;;;;;4973720;28;20177;-72
2022/03/21 15:51:59;;;;;;;19.97;18.17;;;20.10;38.50;;;;;;4974805;28;20248;-72
2022/03/21 15:54:25;;;;;;;21.63;19.93;;;19.60;39.40;;;;;;4973697;28;20185;-72
2022/03/21 15:56:51;;;;;;;20.03;18.23;;;19.80;39.40;;;;;;4975483;28;20275;-73
2022/03/21 15:59:17;;;;;;;19.07;17.47;;;20.10;39.10;;;;;;4975149;28;20181;-74
2022/03/21 16:01:43;;;;;;;18.67;17.13;;;20.10;38.60;;;;;;4974896;28;20645;-73
2022/03/21 16:04:09;;;;;;;19.73;18.00;;;20.00;39.20;;;;;;4974715;28;20185;-72
2022/03/21 16:06:36;;;;;;;22.50;20.60;;;19.50;39.50;;;;;;4959322;28;20281;-73
2022/03/21 16:09:02;;;;;;;23.37;21.17;;;19.30;39.60;;;;;;4955035;28;20220;-73
2022/03/21 16:11:28;;;;;;;25.47;23.47;;;19.10;40.10;;;;;;4955961;28;20197;-73
2022/03/21 16:13:55;;;;;;;20.97;18.90;;;19.10;40.60;;;;;;4956505;28;20197;-73
2022/03/21 16:16:20;;;;;;;21.23;19.43;;;18.50;41.30;;;;;;4972523;28;20209;-72
2022/03/21 16:18:46;;;;;;;20.37;18.63;;;18.30;42.30;;;;;;4975190;23;20228;-70
2022/03/21 16:21:12;;;;;;;19.53;17.80;;;18.00;42.70;;;;;;4954597;28;20202;-71
2022/03/21 16:23:38;;;;;;;18.67;16.70;;;17.70;43.10;;;;;;4954992;28;20216;-71
2022/03/21 16:26:06;;;;;;;14.37;12.87;;;17.50;43.30;;;;;;4970351;28;20272;-72
2022/03/21 16:28:32;;;;;;;14.23;11.57;;;17.30;43.60;;;;;;4939927;28;20198;-71
2022/03/21 16:30:58;;;;;;;13.07;11.50;;;17.20;44.70;;;;;;4936245;29;20193;-72
2022/03/21 16:33:26;;;;;;;14.07;11.40;;;17.30;44.70;;;;;;4935839;29;20674;-74
2022/03/21 16:35:52;;;;;;;16.30;11.67;;;17.20;44.50;;;;;;4939937;29;20197;-78
2022/03/21 16:38:19;;;;;;;14.77;12.23;;;17.10;44.60;;;;;;4952866;29;20281;-75
2022/03/21 16:40:45;;;;;;;12.33;10.20;;;16.80;44.50;;;;;;4953123;29;20181;-74
2022/03/21 16:43:11;;;;;;;12.57;10.80;;;16.40;45.10;;;;;;4952881;29;20201;-75
2022/03/21 16:45:37;;;;;;;10.87;9.73;;;16.10;45.90;;;;;;4953170;28;20207;-72
2022/03/21 16:48:03;;;;;;;13.77;10.37;;;15.90;46.10;;;;;;4953895;28;20229;-70
2022/03/21 16:50:30;;;;;;;11.43;10.17;;;15.70;46.60;;;;;;4953138;28;20193;-71
2022/03/21 16:52:56;;;;;;;11.77;10.33;;;15.50;47.10;;;;;;4953334;29;20181;-70
2022/03/21 16:55:22;;;;;;;14.13;10.97;;;15.40;47.80;;;;;;4940297;28;20265;-73
2022/03/21 16:57:48;;;;;;;16.10;12.90;;;15.20;48.30;;;;;;4933403;29;20594;-71
2022/03/21 17:00:15;;;;;;;13.83;11.87;;;15.10;48.80;;;;;;4933804;29;20191;-71
2022/03/21 17:02:43;;;;;;;15.23;12.70;;;15.00;49.40;;;;;;4934448;28;20189;-72
2022/03/21 17:05:12;;;;;;;16.73;11.83;;;14.80;49.90;;;;;;4933299;29;20550;-72
2022/03/21 17:07:38;;;;;;;13.90;12.40;;;14.70;51.00;;;;;;4933550;29;20269;-72
2022/03/21 17:10:05;;;;;;;16.27;11.93;;;14.50;51.80;;;;;;4935640;29;20194;-73
2022/03/21 17:12:30;;;;;;;16.53;13.93;;;14.30;51.50;;;;;;4934998;29;20694;-71
2022/03/21 17:14:57;;;;;;;18.17;14.87;;;14.20;52.90;;;;;;4935001;29;20191;-72
2022/03/21 17:17:23;;;;;;;17.43;14.50;;;13.90;53.20;;;;;;4936903;29;20617;-71